Atwell, WV

2:58 PM EST on December 06, 2016 (GMT -0500)
KM4HDM - Richlands, Virginia | | Change Station

Elev 1972 ft 37.09 °N, 81.83 °W | Updated 16 seconds ago

Rain
Rain
44.6 °F
Feels Like 45 °F
N
1.0
Wind Variable Wind from NW

Today
High -- | Low -- °F
--% Chance of Precip.
Yesterday
High -- | Low -- °F
Precip. -- in
Pressure 29.67 in
Visibility 10.0 miles
Clouds Scattered Clouds 4500 ft
Scattered Clouds 5000 ft
Overcast 7000 ft
Windchill 45 °F
Dew Point 42 °F
Humidity 91%
Rainfall 0.30 in
Snow Depth Not available.
7:27 AM 5:09 PM
Waxing Crescent, 44% visible
METAR KJFZ 061935Z AUTO 14008KT 10SM RA SCT045 SCT050 OVC070 05/05 A2967 RMK AO2 P0005 T00470045
Pressure 29.67 in
Visibility 10.0 miles
Clouds Scattered Clouds 4500 ft
Scattered Clouds 5000 ft
Overcast 7000 ft
Windchill 45 °F
Dew Point 42 °F
Humidity 91%
Rainfall 0.30 in
Snow Depth Not available.
7:27 AM 5:09 PM
Waxing Crescent, 44% visible
METAR KJFZ 061935Z AUTO 14008KT 10SM RA SCT045 SCT050 OVC070 05/05 A2967 RMK AO2 P0005 T00470045

10-Day Weather Forecast

Almanac

Astronomy

Dec. 06, 2016 Rise Set
Actual Time
Civil Twilight
Nautical Twilight
Astronomical Twilight
Moon
Length of Visible Light
Length of Day
Tomorrow will be .
, % of the Moon is Illuminated

Today's Extremes

State Highs State Lows

Community

WunderPhotos

Upload Photos

1,956,020 photos uploaded!

WunderBlog® & News

Nearby

Air Quality

  Air Quality AQ Index Pollutant
Not available.

Snow Depth

Station Depth Elevation

Earthquake Activity

City Distance Mag. Time & Date
Minimum magnitude displayed is 2.5.

Coastal Water Temperatures

Place Temperature

Stations

Nearby Weather Stations

Station Location Temp. Windchill Dew Point Humidity Wind Precip. Elev Updated Type
                   

Watches & Warnings

There are currently no watches in effect.